Time;durP1;ratioP1;P1;durP2;ratioP2;P2;SDS_P1;SDS_P2;PMS_P1;PMS_P2;Temp;Humidity;BMP_temperature;BMP_pressure;BME280_temperature;BME280_humidity;BME280_pressure;Samples;Min_cycle;Max_cycle;Signal;HPM_P1;HPM_P2
2023/01/04 00:01:32;;;;;;;1.47;1.27;;;;;;;23.23;40.70;100606.11;1876335;74;28185;-41
2023/01/04 00:04:20;;;;;;;1.82;1.32;;;;;;;23.23;40.76;100604.74;1883940;75;28222;-42
2023/01/04 00:07:08;;;;;;;1.25;1.17;;;;;;;23.23;40.74;100597.37;1882855;74;28216;-42
2023/01/04 00:09:57;;;;;;;3.60;1.20;;;;;;;23.22;40.77;100598.41;1883813;75;28098;-42
2023/01/04 00:12:45;;;;;;;1.00;1.00;;;;;;;23.24;40.75;100596.84;1884760;74;28208;-42
2023/01/04 00:15:33;;;;;;;1.40;1.30;;;;;;;23.24;40.75;100599.59;1880569;75;28232;-43
2023/01/04 00:18:22;;;;;;;2.00;1.25;;;;;;;23.20;40.79;100596.41;1866391;75;28125;-42
2023/01/04 00:21:18;;;;;;;1.32;1.22;;;;;;;23.20;40.78;100598.30;1875696;75;28216;-42
2023/01/04 00:24:08;;;;;;;2.70;1.30;;;;;;;23.20;40.79;100598.30;1873931;75;28144;-43
2023/01/04 00:26:56;;;;;;;2.93;1.30;;;;;;;23.20;40.76;100596.41;1868126;74;28130;-41
2023/01/04 00:29:44;;;;;;;2.27;1.20;;;;;;;23.23;40.71;100581.44;1885683;75;28186;-44
2023/01/04 00:32:33;;;;;;;1.10;1.10;;;;;;;23.21;40.74;100599.48;1868930;75;28248;-41
2023/01/04 00:35:21;;;;;;;1.10;1.00;;;;;;;23.18;40.75;100595.78;1880141;75;28161;-41
2023/01/04 00:38:09;;;;;;;1.30;1.20;;;;;;;23.20;40.74;100596.41;1884365;75;28225;-43
2023/01/04 00:40:58;;;;;;;1.32;1.27;;;;;;;23.22;40.72;100589.37;1884639;75;28086;-44
2023/01/04 00:43:46;;;;;;;1.22;1.12;;;;;;;23.23;40.73;100595.15;1882349;75;28143;-45
2023/01/04 00:46:35;;;;;;;1.10;1.10;;;;;;;23.19;40.71;100594.75;1884054;74;28335;-41
2023/01/04 00:49:25;;;;;;;1.30;1.20;;;;;;;23.22;40.76;100597.59;1881543;75;28101;-40
2023/01/04 00:52:13;;;;;;;1.30;1.30;;;;;;;23.18;40.76;100597.16;1888766;74;28348;-41
2023/01/04 00:55:01;;;;;;;1.87;1.20;;;;;;;23.18;40.75;100595.78;1883993;75;28160;-44
2023/01/04 00:57:49;;;;;;;1.37;1.30;;;;;;;23.22;40.75;100599.78;1867910;74;28218;-42
2023/01/04 01:00:39;;;;;;;1.40;1.30;;;;;;;23.25;40.68;100593.03;1884278;75;28068;-42
2023/01/04 01:03:26;;;;;;;1.30;1.20;;;;;;;23.25;40.66;100606.22;1883796;75;28236;-41
2023/01/04 01:06:17;;;;;;;2.20;1.30;;;;;;;23.26;40.67;100612.55;1884086;75;36321;-42
2023/01/04 01:09:05;;;;;;;2.12;1.25;;;;;;;23.26;40.70;100618.03;1869725;75;28112;-42
2023/01/04 01:11:54;;;;;;;1.95;1.32;;;;;;;23.23;40.66;100612.45;1874827;74;28170;-43
2023/01/04 01:14:43;;;;;;;1.90;1.30;;;;;;;23.27;40.72;100611.48;1876421;75;28212;-42
2023/01/04 01:17:31;;;;;;;1.22;1.20;;;;;;;23.29;40.67;100618.98;1884064;74;28164;-42
2023/01/04 01:20:19;;;;;;;1.17;1.17;;;;;;;23.25;40.77;100621.30;1881281;75;28153;-41
2023/01/04 01:23:08;;;;;;;1.12;1.12;;;;;;;23.26;40.75;100623.52;1883266;75;28081;-42
2023/01/04 01:26:01;;;;;;;1.17;1.17;;;;;;;23.27;40.70;100623.81;1883937;75;28098;-41
2023/01/04 01:28:50;;;;;;;1.30;1.20;;;;;;;23.26;40.71;100632.59;1874401;75;28163;-42
2023/01/04 01:31:41;;;;;;;1.27;1.27;;;;;;;23.27;40.71;100630.15;1869255;74;28950;-43
2023/01/04 01:34:29;;;;;;;1.10;1.10;;;;;;;23.31;40.68;100630.59;1872793;75;28375;-42
2023/01/04 01:37:17;;;;;;;1.35;1.25;;;;;;;23.28;40.70;100630.48;1867481;74;28155;-41
2023/01/04 01:40:07;;;;;;;1.15;1.15;;;;;;;23.27;40.73;100629.30;1874517;75;28133;-41
2023/01/04 01:42:55;;;;;;;1.40;1.20;;;;;;;23.29;40.74;100630.77;1872266;74;28119;-42
2023/01/04 01:45:46;;;;;;;1.73;1.30;;;;;;;23.30;40.63;100637.95;1873628;75;28321;-41
2023/01/04 01:48:34;;;;;;;1.10;1.10;;;;;;;23.33;40.68;100633.44;1875120;74;28149;-41
2023/01/04 01:51:24;;;;;;;1.50;1.40;;;;;;;23.26;40.71;100629.85;1884719;74;28136;-41
2023/01/04 01:54:15;;;;;;;1.30;1.20;;;;;;;23.28;40.71;100624.14;1883889;75;28736;-42
2023/01/04 01:57:06;;;;;;;1.90;1.30;;;;;;;23.31;40.70;100632.77;1856229;74;28284;-41
2023/01/04 01:59:57;;;;;;;1.20;1.20;;;;;;;23.28;40.76;100633.22;1880743;75;28107;-42
2023/01/04 02:02:58;;;;;;;2.45;1.35;;;;;;;23.26;40.80;100636.70;1879099;74;28270;-42
2023/01/04 02:05:50;;;;;;;1.50;1.40;;;;;;;23.31;40.79;100634.14;1860900;75;28155;-41
2023/01/04 02:08:41;;;;;;;1.20;1.15;;;;;;;23.26;40.75;100632.59;1878522;74;28151;-41
2023/01/04 02:11:29;;;;;;;1.40;1.30;;;;;;;23.29;40.82;100628.59;1861973;74;28283;-42
2023/01/04 02:14:26;;;;;;;1.77;1.30;;;;;;;23.27;40.74;100632.89;1887580;74;28211;-41
2023/01/04 02:17:29;;;;;;;1.30;1.20;;;;;;;23.29;40.76;100634.89;1871829;75;28132;-41
2023/01/04 02:20:32;;;;;;;1.20;1.20;;;;;;;23.28;40.83;100642.81;1882338;75;28772;-41
2023/01/04 02:23:36;;;;;;;1.17;1.17;;;;;;;23.27;40.89;100644.37;1865700;75;28175;-41
2023/01/04 02:26:27;;;;;;;1.30;1.30;;;;;;;23.30;40.85;100643.96;1867775;74;28089;-41
2023/01/04 02:29:37;;;;;;;1.35;1.25;;;;;;;23.30;40.85;100643.44;1866651;75;28320;-41
2023/01/04 02:32:37;;;;;;;1.82;1.35;;;;;;;23.30;40.90;100648.08;1815614;75;28300;-43
2023/01/04 02:36:01;;;;;;;1.50;1.40;;;;;;;23.27;40.96;100645.23;1810238;78;28211;-41
2023/01/04 02:38:53;;;;;;;1.20;1.10;;;;;;;23.28;40.90;100643.34;1816368;78;28279;-43
2023/01/04 02:41:53;;;;;;;1.30;1.20;;;;;;;23.26;41.06;100645.45;1836314;77;28749;-42
2023/01/04 02:44:53;;;;;;;1.45;1.30;;;;;;;23.28;41.11;100643.34;1804390;78;28329;-41
2023/01/04 02:51:00;;;;;;;1.22;1.22;;;;;;;23.27;41.11;100646.59;1821943;78;28466;-42
2023/01/04 02:53:49;;;;;;;1.32;1.20;;;;;;;23.28;41.15;100648.30;1810817;78;28309;-43
2023/01/04 02:56:46;;;;;;;1.32;1.10;;;;;;;23.29;41.11;100646.41;1841771;77;28109;-42
2023/01/04 02:59:52;;;;;;;1.50;1.40;;;;;;;23.31;41.13;100646.48;1829620;77;28153;-41
2023/01/04 03:06:17;;;;;;;1.13;1.13;;;;;;;23.30;41.17;100646.19;1782674;78;28363;-43
2023/01/04 03:09:14;;;;;;;1.20;1.20;;;;;;;23.29;41.25;100648.59;1817019;78;28116;-41
2023/01/04 03:15:18;;;;;;;2.20;1.42;;;;;;;23.29;41.31;100654.08;1803039;79;28562;-43
2023/01/04 03:18:09;;;;;;;1.35;1.35;;;;;;;23.28;41.32;100645.56;1790819;79;28443;-41
2023/01/04 03:21:00;;;;;;;1.70;1.40;;;;;;;23.30;41.31;100653.04;1846631;77;28184;-43
2023/01/04 03:36:47;;;;;;;1.45;1.35;;;;;;;23.38;41.45;100649.28;1862298;75;28212;-42
2023/01/04 03:49:40;;;;;;;1.25;1.22;;;;;;;23.37;41.44;100640.72;1848255;76;28716;-41
2023/01/04 03:52:31;;;;;;;1.40;1.30;;;;;;;23.38;41.42;100634.20;1869476;74;28130;-42
2023/01/04 03:55:21;;;;;;;1.40;1.30;;;;;;;23.40;41.35;100633.98;1856865;76;28177;-41
2023/01/04 03:58:12;;;;;;;1.30;1.20;;;;;;;23.43;41.32;100629.45;1867048;75;28177;-41
2023/01/04 04:01:03;;;;;;;1.25;1.25;;;;;;;23.45;41.31;100632.81;1839657;77;28183;-41
2023/01/04 04:10:05;;;;;;;1.40;1.30;;;;;;;23.46;41.23;100622.14;1884231;75;28298;-40
2023/01/04 04:12:54;;;;;;;1.22;1.22;;;;;;;23.47;41.25;100612.88;1881703;74;28078;-45
2023/01/04 04:15:43;;;;;;;1.55;1.45;;;;;;;23.47;41.25;100615.09;1882893;75;28114;-42
2023/01/04 04:18:31;;;;;;;1.10;1.10;;;;;;;23.51;41.20;100614.13;1882542;75;28098;-42
2023/01/04 04:21:19;;;;;;;1.30;1.20;;;;;;;23.53;41.20;100612.86;1861823;75;28225;-41
2023/01/04 04:24:10;;;;;;;1.30;1.30;;;;;;;23.54;41.14;100608.22;1872533;75;28100;-41
2023/01/04 04:26:58;;;;;;;2.50;1.50;;;;;;;23.55;41.09;100614.03;1861194;74;32298;-41
2023/01/04 04:29:46;;;;;;;1.27;1.20;;;;;;;23.56;41.07;100609.70;1883860;75;28187;-41
2023/01/04 04:32:35;;;;;;;2.25;1.40;;;;;;;23.59;41.12;100607.91;1891402;74;28012;-42
2023/01/04 04:35:23;;;;;;;1.60;1.50;;;;;;;23.62;41.09;100612.12;1871587;75;28783;-41
2023/01/04 04:38:11;;;;;;;1.57;1.40;;;;;;;23.60;41.10;100612.84;1885845;74;28241;-43
2023/01/04 04:44:08;;;;;;;1.85;1.30;;;;;;;23.63;41.04;100616.53;1877094;75;28255;-41
2023/01/04 04:46:56;;;;;;;1.20;1.20;;;;;;;23.65;41.06;100615.78;1884185;75;28706;-41
2023/01/04 04:49:44;;;;;;;1.55;1.45;;;;;;;23.63;41.02;100616.53;1884326;75;28193;-41
2023/01/04 04:52:33;;;;;;;1.63;1.53;;;;;;;23.64;41.05;100619.60;1878391;74;28139;-42
2023/01/04 04:55:21;;;;;;;1.40;1.40;;;;;;;23.66;40.99;100616.11;1881131;75;28247;-41
2023/01/04 04:58:10;;;;;;;1.35;1.30;;;;;;;23.70;40.99;100617.36;1883094;75;28099;-41
2023/01/04 05:00:58;;;;;;;1.40;1.30;;;;;;;23.71;40.94;100616.31;1865590;75;28175;-42
2023/01/04 05:03:47;;;;;;;1.30;1.22;;;;;;;23.70;40.92;100618.21;1876723;74;28194;-41
2023/01/04 05:06:36;;;;;;;1.40;1.40;;;;;;;23.73;40.97;100623.80;1841974;76;28477;-44
2023/01/04 05:09:24;;;;;;;1.60;1.50;;;;;;;23.74;40.95;100618.09;1806475;78;28317;-42
2023/01/04 05:15:19;;;;;;;1.60;1.30;;;;;;;23.75;40.96;100615.67;1822458;77;28160;-43
2023/01/04 05:18:09;;;;;;;1.20;1.20;;;;;;;23.72;41.02;100614.72;1825443;77;28360;-42
2023/01/04 05:20:58;;;;;;;1.20;1.20;;;;;;;23.75;41.02;100612.08;1824896;78;28270;-43
2023/01/04 05:23:46;;;;;;;1.40;1.40;;;;;;;23.77;41.00;100614.92;1827097;77;28260;-43
2023/01/04 05:26:35;;;;;;;1.62;1.50;;;;;;;23.81;40.96;100619.44;1808498;78;28462;-42
2023/01/04 05:32:30;;;;;;;1.47;1.37;;;;;;;23.82;40.92;100621.13;1801083;77;28501;-42
2023/01/04 05:35:18;;;;;;;1.42;1.32;;;;;;;23.82;40.94;100623.87;1820559;78;28351;-42
2023/01/04 05:38:07;;;;;;;1.40;1.35;;;;;;;23.82;40.91;100626.09;1808229;78;36630;-42
2023/01/04 05:40:56;;;;;;;1.40;1.30;;;;;;;23.84;40.90;100626.72;1819089;78;28344;-42
2023/01/04 05:43:44;;;;;;;1.30;1.30;;;;;;;23.88;40.77;100627.12;1799128;78;28325;-42
2023/01/04 05:46:33;;;;;;;1.72;1.47;;;;;;;23.91;40.83;100626.70;1805496;78;28392;-42
2023/01/04 05:49:21;;;;;;;1.80;1.40;;;;;;;23.91;40.80;100628.06;1863752;75;28202;-42
2023/01/04 05:52:10;;;;;;;1.47;1.37;;;;;;;23.94;40.80;100633.13;1810143;78;28282;-42
2023/01/04 05:54:58;;;;;;;1.30;1.20;;;;;;;23.94;40.78;100635.32;1823631;78;28316;-41
2023/01/04 05:57:47;;;;;;;1.40;1.30;;;;;;;23.95;40.77;100638.92;1820603;77;28345;-43
2023/01/04 06:00:35;;;;;;;1.45;1.37;;;;;;;23.93;40.77;100634.17;1819307;78;28370;-43
2023/01/04 06:03:24;;;;;;;1.30;1.30;;;;;;;23.94;40.71;100631.77;1884397;74;28267;-42
2023/01/04 06:06:12;;;;;;;1.60;1.50;;;;;;;23.93;40.78;100635.55;1790892;78;28315;-43
2023/01/04 06:09:00;;;;;;;1.60;1.50;;;;;;;23.99;40.66;100636.08;1790866;77;28423;-43
2023/01/04 06:11:48;;;;;;;3.37;1.30;;;;;;;23.99;40.66;100644.31;1786831;79;28298;-41
2023/01/04 06:14:37;;;;;;;1.47;1.37;;;;;;;24.00;40.69;100645.98;1806262;79;28341;-42
2023/01/04 06:17:25;;;;;;;1.52;1.45;;;;;;;23.99;40.71;100651.17;1850391;75;28246;-43
2023/01/04 06:20:13;;;;;;;1.70;1.30;;;;;;;24.02;40.65;100650.72;1868579;76;28129;-42
2023/01/04 06:23:02;;;;;;;1.60;1.50;;;;;;;24.01;40.71;100662.78;1867655;76;28099;-42
2023/01/04 06:25:50;;;;;;;1.47;1.37;;;;;;;24.03;40.60;100662.03;1868692;76;28160;-43
2023/01/04 06:28:38;;;;;;;2.73;1.70;;;;;;;24.05;40.59;100659.38;1883665;74;28162;-44
2023/01/04 06:31:27;;;;;;;1.57;1.45;;;;;;;24.11;40.37;100667.30;1856228;75;38445;-42
2023/01/04 06:34:15;;;;;;;2.10;1.87;;;;;;;24.13;40.23;100662.45;1862076;76;28106;-42
2023/01/04 06:37:04;;;;;;;2.70;2.50;;;;;;;24.15;39.70;100668.57;1861555;74;28272;-44
2023/01/04 06:39:53;;;;;;;1.97;1.87;;;;;;;24.11;39.24;100681.02;1827692;76;28194;-45
2023/01/04 06:42:44;;;;;;;4.22;1.90;;;;;;;24.09;39.17;100680.40;1865676;76;28109;-42
2023/01/04 06:45:33;;;;;;;1.60;1.50;;;;;;;24.06;39.30;100675.36;1856802;77;28190;-42
2023/01/04 06:48:22;;;;;;;1.80;1.70;;;;;;;24.07;39.42;100685.27;1865580;75;28198;-42
2023/01/04 06:51:10;;;;;;;1.60;1.50;;;;;;;24.08;39.37;100680.10;1868653;76;38572;-45
2023/01/04 06:53:59;;;;;;;1.50;1.40;;;;;;;24.09;39.42;100683.14;1865637;76;28203;-42
2023/01/04 06:56:47;;;;;;;1.67;1.57;;;;;;;24.11;39.41;100689.25;1868772;75;28097;-43
2023/01/04 06:59:35;;;;;;;2.00;1.50;;;;;;;24.11;39.38;100683.77;1853739;76;28110;-44
2023/01/04 07:02:24;;;;;;;1.62;1.52;;;;;;;24.11;39.38;100681.58;1867465;76;28177;-44
2023/01/04 07:05:12;;;;;;;1.52;1.40;;;;;;;24.13;39.41;100686.31;1864681;76;28174;-42
2023/01/04 07:08:04;;;;;;;1.60;1.50;;;;;;;24.12;39.47;100685.98;1855868;75;28187;-51
2023/01/04 07:10:52;;;;;;;1.80;1.70;;;;;;;24.12;39.59;100685.47;1867047;75;28166;-45
2023/01/04 07:13:41;;;;;;;1.45;1.35;;;;;;;24.15;39.58;100687.79;1792236;78;28245;-45
2023/01/04 07:16:29;;;;;;;1.20;1.20;;;;;;;24.15;39.56;100691.91;1816268;77;35281;-47
2023/01/04 07:19:18;;;;;;;1.37;1.27;;;;;;;24.17;39.50;100690.30;1807264;78;28267;-45
2023/01/04 07:22:06;;;;;;;1.30;1.30;;;;;;;24.17;39.53;100691.16;1814295;77;28282;-44
2023/01/04 07:24:54;;;;;;;1.40;1.40;;;;;;;24.15;39.60;100694.65;1818810;78;28325;-46
2023/01/04 07:27:42;;;;;;;1.50;1.40;;;;;;;24.15;39.59;100696.02;1812607;78;28752;-44
2023/01/04 07:30:31;;;;;;;2.20;1.27;;;;;;;24.14;39.67;100694.33;1817402;78;28363;-45
2023/01/04 07:33:19;;;;;;;1.30;1.20;;;;;;;24.17;39.66;100700.77;1813629;78;28328;-43
2023/01/04 07:36:08;;;;;;;2.30;1.40;;;;;;;24.17;39.73;100696.64;1818271;78;28285;-46
2023/01/04 07:38:58;;;;;;;2.20;1.40;;;;;;;24.19;39.74;100698.64;1816729;78;28409;-46
2023/01/04 07:41:47;;;;;;;1.37;1.27;;;;;;;24.19;39.74;100705.51;1830782;77;28331;-44
2023/01/04 07:44:37;;;;;;;1.50;1.40;;;;;;;24.17;39.81;100704.88;1808012;78;32318;-43
2023/01/04 07:47:28;;;;;;;2.00;1.32;;;;;;;24.20;40.02;100709.92;1887482;74;28078;-43
2023/01/04 07:50:17;;;;;;;1.42;1.32;;;;;;;24.19;40.30;100711.52;1810467;78;28282;-42
2023/01/04 07:53:05;;;;;;;1.52;1.42;;;;;;;24.23;40.42;100707.27;1810331;77;28254;-43
2023/01/04 07:55:58;;;;;;;1.80;1.30;;;;;;;24.24;40.49;100713.09;1809342;78;28638;-43
2023/01/04 07:58:46;;;;;;;1.42;1.32;;;;;;;24.24;40.53;100707.08;1822898;77;28171;-43
2023/01/04 08:01:37;;;;;;;1.87;1.40;;;;;;;24.24;40.61;100706.23;1840902;77;28323;-46
2023/01/04 08:04:25;;;;;;;1.50;1.40;;;;;;;24.26;40.68;100713.20;1799601;78;28318;-43
2023/01/04 08:07:14;;;;;;;2.20;1.50;;;;;;;24.24;40.73;100716.69;1846220;77;28155;-45
2023/01/04 08:10:02;;;;;;;2.20;1.45;;;;;;;24.26;40.84;100713.72;1842467;77;28356;-43
2023/01/04 08:12:51;;;;;;;1.30;1.20;;;;;;;24.26;40.87;100710.97;1863513;74;28475;-43
2023/01/04 08:15:39;;;;;;;2.20;1.40;;;;;;;24.28;40.95;100718.45;1866812;76;28215;-44
2023/01/04 08:18:28;;;;;;;1.67;1.57;;;;;;;24.27;40.85;100723.10;1891554;74;28316;-43
2023/01/04 08:21:16;;;;;;;1.27;1.27;;;;;;;24.27;40.93;100720.91;1868999;76;28143;-43
2023/01/04 08:24:06;;;;;;;1.30;1.30;;;;;;;24.26;41.05;100728.30;1842203;76;28155;-43
2023/01/04 08:26:55;;;;;;;1.42;1.40;;;;;;;24.27;41.20;100734.08;1873533;74;27952;-45
2023/01/04 08:29:43;;;;;;;1.77;1.45;;;;;;;24.29;41.02;100731.99;1859953;76;28145;-44
2023/01/04 08:32:32;;;;;;;1.50;1.40;;;;;;;24.27;41.08;100730.52;1868833;74;28718;-43
2023/01/04 08:35:21;;;;;;;1.47;1.37;;;;;;;24.27;41.14;100735.45;1855034;76;28250;-43
2023/01/04 08:38:09;;;;;;;1.20;1.20;;;;;;;24.31;41.15;100741.38;1864609;74;28090;-44
2023/01/04 08:40:57;;;;;;;2.17;1.07;;;;;;;24.29;41.14;100740.75;1855492;76;28089;-44
2023/01/04 08:43:46;;;;;;;1.40;1.20;;;;;;;24.26;41.16;100738.43;1843375;76;28154;-43
2023/01/04 08:46:34;;;;;;;1.35;1.27;;;;;;;24.27;41.27;100745.63;1860494;76;28298;-44
2023/01/04 08:49:23;;;;;;;1.17;1.17;;;;;;;24.28;41.23;100742.65;1861017;76;28217;-45
2023/01/04 08:52:14;;;;;;;2.00;1.20;;;;;;;24.30;41.15;100736.41;1864399;76;28275;-43
2023/01/04 08:55:01;;;;;;;1.50;1.30;;;;;;;24.26;41.26;100741.17;1850819;76;28141;-46
2023/01/04 08:57:49;;;;;;;1.50;1.40;;;;;;;24.26;41.29;100741.17;1858446;74;28223;-42
2023/01/04 09:00:38;;;;;;;2.65;1.50;;;;;;;24.25;41.25;100743.07;1852812;76;28157;-45
2023/01/04 09:03:26;;;;;;;1.13;1.00;;;;;;;24.26;41.24;100744.77;1869060;76;28258;-45
2023/01/04 09:06:16;;;;;;;1.90;1.10;;;;;;;24.26;41.29;100750.78;1856022;76;28090;-44
2023/01/04 09:09:05;;;;;;;1.20;1.20;;;;;;;24.28;41.16;100745.92;1850478;76;28117;-44
2023/01/04 09:11:53;;;;;;;1.80;1.20;;;;;;;24.28;41.23;100744.55;1868878;75;28172;-44
2023/01/04 09:14:41;;;;;;;1.32;1.30;;;;;;;24.29;41.14;100742.98;1872829;75;28194;-44
2023/01/04 09:17:30;;;;;;;1.20;1.20;;;;;;;24.29;41.15;100740.23;1873689;74;28086;-43
2023/01/04 09:20:18;;;;;;;1.57;1.32;;;;;;;24.33;41.08;100740.11;1865223;76;28230;-46
2023/01/04 09:23:06;;;;;;;1.32;1.30;;;;;;;24.32;41.09;100744.45;1835769;76;28110;-43
2023/01/04 09:25:55;;;;;;;1.35;1.20;;;;;;;24.34;41.07;100738.20;1858982;76;32067;-44
2023/01/04 09:28:44;;;;;;;1.50;1.40;;;;;;;24.30;41.05;100740.52;1861678;75;28219;-43
2023/01/04 09:31:32;;;;;;;1.23;1.17;;;;;;;24.32;41.10;100738.41;1861648;74;28376;-43
2023/01/04 09:34:21;;;;;;;2.00;1.50;;;;;;;24.36;41.00;100742.95;1862758;76;28176;-43
2023/01/04 09:37:09;;;;;;;1.30;1.30;;;;;;;24.37;41.03;100741.87;1857218;76;28164;-44
2023/01/04 09:39:57;;;;;;;1.25;1.15;;;;;;;24.36;41.04;100749.30;1859624;76;28198;-44
2023/01/04 09:42:46;;;;;;;1.00;1.00;;;;;;;24.40;40.99;100748.31;1857420;76;28102;-42
2023/01/04 09:45:36;;;;;;;1.27;1.17;;;;;;;24.40;40.99;100745.56;1860873;76;28083;-43
2023/01/04 09:48:27;;;;;;;1.00;1.00;;;;;;;24.41;40.99;100747.27;1863045;74;28128;-42
2023/01/04 09:51:18;;;;;;;1.15;1.10;;;;;;;24.40;40.99;100735.95;1869834;76;28259;-47
2023/01/04 09:54:16;;;;;;;1.37;1.30;;;;;;;24.41;40.99;100740.41;1866099;76;28110;-43
2023/01/04 09:57:07;;;;;;;2.20;1.30;;;;;;;24.39;41.01;100740.59;1865341;75;28295;-43
2023/01/04 09:59:58;;;;;;;1.07;1.07;;;;;;;24.37;40.97;100741.35;1834620;76;28274;-44
2023/01/04 10:03:14;;;;;;;1.20;1.10;;;;;;;24.41;40.96;100741.78;1866816;76;28106;-43
2023/01/04 10:06:03;;;;;;;1.17;1.17;;;;;;;24.41;40.95;100748.64;1867301;76;28094;-44
2023/01/04 10:08:52;;;;;;;1.10;1.10;;;;;;;24.38;40.96;100745.80;1865520;76;28172;-43
2023/01/04 10:11:43;;;;;;;1.00;1.00;;;;;;;24.42;40.92;100747.56;1872446;74;28587;-45
2023/01/04 10:14:59;;;;;;;1.30;1.07;;;;;;;24.41;40.90;100749.46;1867834;76;28215;-43
2023/01/04 10:18:07;;;;;;;1.27;1.20;;;;;;;24.44;40.80;100755.91;1868202;76;28189;-42
2023/01/04 10:21:15;;;;;;;1.37;1.20;;;;;;;24.41;40.89;100753.58;1835972;76;28094;-44
2023/01/04 10:24:15;;;;;;;1.30;1.20;;;;;;;24.39;40.97;100749.36;1865368;76;28206;-43
2023/01/04 10:27:09;;;;;;;1.30;1.20;;;;;;;24.35;40.96;100731.11;1868010;75;28195;-44
2023/01/04 10:30:10;;;;;;;1.00;1.00;;;;;;;24.44;40.92;100736.68;1871071;76;28097;-43
2023/01/04 10:33:13;;;;;;;1.40;1.30;;;;;;;24.44;40.91;100739.95;1858731;76;28098;-43
2023/01/04 10:36:02;;;;;;;1.27;1.17;;;;;;;24.45;40.87;100743.02;1877243;76;28478;-44
2023/01/04 10:38:59;;;;;;;1.30;1.20;;;;;;;24.44;40.91;100742.70;1867811;75;28144;-43
2023/01/04 10:41:57;;;;;;;1.02;1.00;;;;;;;24.43;40.84;100738.28;1873346;76;28181;-43
2023/01/04 10:44:54;;;;;;;1.32;1.22;;;;;;;24.47;40.82;100740.89;1873094;76;28081;-42
2023/01/04 10:47:55;;;;;;;1.10;1.03;;;;;;;24.47;40.80;100734.03;1870500;74;28117;-43
2023/01/04 10:50:58;;;;;;;1.00;1.00;;;;;;;24.49;40.78;100731.91;1874100;76;28097;-43
2023/01/04 10:53:55;;;;;;;1.10;1.10;;;;;;;24.48;40.77;100721.44;1881986;74;28118;-45
2023/01/04 10:56:46;;;;;;;1.20;1.10;;;;;;;24.47;40.78;100718.40;1865763;74;28250;-43
2023/01/04 10:59:43;;;;;;;1.10;1.10;;;;;;;24.49;40.74;100712.67;1872611;75;28173;-42
2023/01/04 11:02:41;;;;;;;1.10;1.10;;;;;;;24.53;40.76;100712.55;1871540;74;28358;-44
2023/01/04 11:05:41;;;;;;;1.10;1.10;;;;;;;24.49;40.77;100708.55;1877502;76;28248;-43
2023/01/04 11:08:54;;;;;;;1.17;1.02;;;;;;;24.50;40.73;100706.14;1886496;74;28082;-43
2023/01/04 11:11:47;;;;;;;1.00;1.00;;;;;;;24.53;40.71;100693.31;1872280;74;28168;-43
2023/01/04 11:14:35;;;;;;;1.00;1.00;;;;;;;24.48;40.67;100689.85;1856039;74;28228;-44
2023/01/04 11:17:25;;;;;;;0.90;0.90;;;;;;;24.51;40.69;100685.30;1877990;76;28196;-45
2023/01/04 11:20:14;;;;;;;1.07;1.07;;;;;;;24.55;40.65;100689.84;1857718;76;28387;-46
2023/01/04 11:23:17;;;;;;;1.13;1.03;;;;;;;24.57;40.62;100683.59;1875892;76;28135;-42
2023/01/04 11:26:21;;;;;;;1.60;1.10;;;;;;;24.58;40.59;100683.89;1873151;76;28089;-42
2023/01/04 11:29:33;;;;;;;1.00;1.00;;;;;;;24.56;40.61;100678.63;1873396;76;28159;-43
2023/01/04 11:32:40;;;;;;;1.32;1.00;;;;;;;24.56;40.61;100681.37;1873260;76;28123;-42
2023/01/04 11:35:49;;;;;;;1.00;0.90;;;;;;;24.55;40.67;100678.30;1868986;76;28077;-43
2023/01/04 11:38:37;;;;;;;1.07;1.07;;;;;;;24.56;40.63;100670.91;1865304;76;28204;-44
2023/01/04 11:41:27;;;;;;;1.27;1.17;;;;;;;24.50;40.68;100667.16;1859380;76;28086;-49
2023/01/04 11:44:18;;;;;;;0.80;0.80;;;;;;;24.56;40.62;100667.64;1878240;76;28193;-42
2023/01/04 11:47:23;;;;;;;1.10;1.00;;;;;;;24.57;40.61;100666.59;1880397;76;28055;-42
2023/01/04 11:50:14;;;;;;;0.95;0.95;;;;;;;24.60;40.53;100665.28;1880519;76;31012;-43
2023/01/04 11:53:04;;;;;;;1.10;1.10;;;;;;;24.61;40.57;100660.96;1876939;76;28131;-42
2023/01/04 11:55:54;;;;;;;1.15;1.10;;;;;;;24.60;40.44;100659.27;1857205;76;28109;-43
2023/01/04 11:58:44;;;;;;;1.00;1.00;;;;;;;24.59;40.49;100657.59;1878633;76;28089;-44
2023/01/04 12:01:36;;;;;;;1.05;1.05;;;;;;;24.59;40.50;100658.13;1879261;76;28122;-45
2023/01/04 12:04:27;;;;;;;1.00;1.00;;;;;;;24.61;40.45;100654.09;1862190;76;28224;-46
2023/01/04 12:07:33;;;;;;;1.00;0.90;;;;;;;24.59;40.51;100652.62;1857134;76;30113;-45
2023/01/04 12:10:25;;;;;;;0.82;0.82;;;;;;;24.61;40.43;100657.36;1855774;76;28128;-45
2023/01/04 12:13:13;;;;;;;1.07;1.07;;;;;;;24.60;40.48;100659.78;1881111;75;27991;-42
2023/01/04 12:16:14;;;;;;;0.90;0.90;;;;;;;24.59;40.49;100655.38;1863121;76;28188;-48
2023/01/04 12:19:04;;;;;;;0.90;0.90;;;;;;;24.60;40.43;100651.02;1837528;77;28182;-42
2023/01/04 12:21:56;;;;;;;1.00;1.00;;;;;;;24.61;40.49;100655.47;1837528;77;28230;-45
2023/01/04 12:24:45;;;;;;;1.07;1.07;;;;;;;24.61;40.43;100647.75;1863806;76;28212;-45
2023/01/04 12:27:35;;;;;;;0.90;0.90;;;;;;;24.62;40.46;100649.45;1846501;76;28163;-45
2023/01/04 12:30:44;;;;;;;1.00;1.00;;;;;;;24.63;40.43;100654.71;1840334;77;28192;-44
2023/01/04 12:33:34;;;;;;;1.40;1.23;;;;;;;24.63;40.38;100647.84;1838014;76;28149;-43
2023/01/04 12:36:40;;;;;;;1.00;1.00;;;;;;;24.57;40.47;100641.87;1860714;76;28222;-43
2023/01/04 12:39:40;;;;;;;1.00;1.00;;;;;;;24.61;40.45;100645.85;1867837;76;30145;-43
2023/01/04 12:42:27;;;;;;;0.90;0.90;;;;;;;24.62;40.41;100636.53;1869792;76;29143;-43
2023/01/04 12:45:17;;;;;;;1.25;0.82;;;;;;;24.63;40.38;100638.75;1875499;76;28097;-43
2023/01/04 12:51:31;;;;;;;0.98;0.98;;;;;;;24.64;40.38;100634.40;1861921;76;28137;-47
2023/01/04 12:54:31;;;;;;;0.93;0.93;;;;;;;24.63;40.35;100632.73;1837340;77;28143;-44
2023/01/04 12:57:23;;;;;;;1.00;1.00;;;;;;;24.60;40.39;100629.04;1868701;76;28177;-43
2023/01/04 13:00:15;;;;;;;1.07;1.07;;;;;;;24.60;40.44;100618.05;1853378;77;28086;-43
2023/01/04 13:03:19;;;;;;;1.00;1.00;;;;;;;24.58;40.40;100613.31;1844882;77;28090;-43
2023/01/04 13:06:08;;;;;;;1.80;1.00;;;;;;;24.60;40.38;100612.55;1854172;76;28157;-42
2023/01/04 13:08:56;;;;;;;1.00;1.00;;;;;;;24.63;40.33;100605.25;1837616;77;28286;-42
2023/01/04 13:11:47;;;;;;;1.05;0.95;;;;;;;24.62;40.35;100612.36;1863864;76;28853;-44
2023/01/04 13:14:38;;;;;;;0.88;0.88;;;;;;;24.65;40.35;100601.75;1863215;76;28081;-42
2023/01/04 13:17:28;;;;;;;1.00;1.00;;;;;;;24.66;40.29;100602.08;1861755;76;28009;-45
2023/01/04 13:20:25;;;;;;;0.90;0.90;;;;;;;24.66;40.28;100591.61;1862628;76;28192;-43
2023/01/04 13:23:14;;;;;;;0.90;0.90;;;;;;;24.68;40.25;100576.59;1862775;76;28170;-42
2023/01/04 13:26:34;;;;;;;0.90;0.90;;;;;;;24.67;40.24;100580.91;1872907;76;28117;-43
2023/01/04 13:29:32;;;;;;;1.00;1.00;;;;;;;24.65;40.31;100577.02;1863260;76;28086;-43
2023/01/04 13:32:32;;;;;;;1.10;1.00;;;;;;;24.63;40.33;100579.16;1856403;77;28148;-44
2023/01/04 13:35:21;;;;;;;1.00;1.00;;;;;;;24.61;40.37;100567.55;1862370;76;28040;-44
2023/01/04 13:38:17;;;;;;;0.88;0.88;;;;;;;24.63;40.34;100558.55;1862366;76;28164;-43
2023/01/04 13:41:09;;;;;;;0.85;0.85;;;;;;;24.65;40.28;100557.80;1863069;76;28206;-42
2023/01/04 13:44:09;;;;;;;0.95;0.95;;;;;;;24.66;40.23;100560.86;1873250;76;28110;-44
2023/01/04 13:46:59;;;;;;;1.00;1.00;;;;;;;24.64;40.26;100559.40;1854157;76;28137;-44
2023/01/04 13:49:48;;;;;;;0.90;0.90;;;;;;;24.61;40.30;100559.31;1861578;76;27995;-42
2023/01/04 13:52:36;;;;;;;1.07;1.07;;;;;;;24.63;40.30;100558.55;1836819;77;28099;-42
2023/01/04 13:55:28;;;;;;;1.72;1.00;;;;;;;24.63;40.25;100558.55;1868773;76;28171;-45
2023/01/04 13:58:19;;;;;;;0.80;0.80;;;;;;;24.67;40.25;100569.92;1866885;76;28178;-43
2023/01/04 14:01:13;;;;;;;0.80;0.80;;;;;;;24.65;40.25;100570.16;1852815;76;28068;-44
2023/01/04 14:04:04;;;;;;;0.80;0.80;;;;;;;24.66;40.25;100563.61;1836663;77;28103;-46
2023/01/04 14:06:56;;;;;;;0.98;0.95;;;;;;;24.69;40.14;100570.56;1858221;76;28008;-43
2023/01/04 14:09:47;;;;;;;1.00;1.00;;;;;;;24.65;40.19;100568.78;1859706;76;28080;-46